sensor_id;sensor_type;location;lat;lon;timestamp;temperature;humidity
12053;DHT22;6087;48.982;12.064;2023-03-11T00:00:29;2.80;1.00
12053;DHT22;6087;48.982;12.064;2023-03-11T00:02:57;2.70;1.00
12053;DHT22;6087;48.982;12.064;2023-03-11T00:05:27;2.70;1.00
12053;DHT22;6087;48.982;12.064;2023-03-11T00:07:54;2.70;1.00
12053;DHT22;6087;48.982;12.064;2023-03-11T00:10:24;2.70;1.00
12053;DHT22;6087;48.982;12.064;2023-03-11T00:12:52;2.70;1.00
12053;DHT22;6087;48.982;12.064;2023-03-11T00:15:19;2.60;1.00
12053;DHT22;6087;48.982;12.064;2023-03-11T00:17:46;2.60;1.00
12053;DHT22;6087;48.982;12.064;2023-03-11T00:20:17;2.60;1.00
12053;DHT22;6087;48.982;12.064;2023-03-11T00:22:45;2.60;1.00
12053;DHT22;6087;48.982;12.064;2023-03-11T00:25:13;2.60;1.00
12053;DHT22;6087;48.982;12.064;2023-03-11T00:27:40;2.50;1.00
12053;DHT22;6087;48.982;12.064;2023-03-11T00:30:10;2.50;1.00
12053;DHT22;6087;48.982;12.064;2023-03-11T00:32:37;2.50;1.00
12053;DHT22;6087;48.982;12.064;2023-03-11T00:35:05;2.50;1.00
12053;DHT22;6087;48.982;12.064;2023-03-11T00:37:33;2.40;1.00
12053;DHT22;6087;48.982;12.064;2023-03-11T00:40:00;2.40;1.00
12053;DHT22;6087;48.982;12.064;2023-03-11T00:42:30;2.40;1.00
12053;DHT22;6087;48.982;12.064;2023-03-11T00:44:57;2.40;1.00
12053;DHT22;6087;48.982;12.064;2023-03-11T00:47:25;2.40;1.00
12053;DHT22;6087;48.982;12.064;2023-03-11T00:49:52;2.40;1.00
12053;DHT22;6087;48.982;12.064;2023-03-11T00:52:19;2.40;1.00
12053;DHT22;6087;48.982;12.064;2023-03-11T00:54:46;2.40;1.00
12053;DHT22;6087;48.982;12.064;2023-03-11T00:57:18;2.40;1.00
12053;DHT22;6087;48.982;12.064;2023-03-11T00:59:45;2.40;1.00
12053;DHT22;6087;48.982;12.064;2023-03-11T01:02:12;2.30;1.00
12053;DHT22;6087;48.982;12.064;2023-03-11T01:04:41;2.40;1.00
12053;DHT22;6087;48.982;12.064;2023-03-11T01:07:08;2.40;1.00
12053;DHT22;6087;48.982;12.064;2023-03-11T01:09:35;2.50;1.00
12053;DHT22;6087;48.982;12.064;2023-03-11T01:12:02;2.50;1.00
12053;DHT22;6087;48.982;12.064;2023-03-11T01:14:29;2.50;1.00
12053;DHT22;6087;48.982;12.064;2023-03-11T01:16:56;2.50;1.00
12053;DHT22;6087;48.982;12.064;2023-03-11T01:19:23;2.40;1.00
12053;DHT22;6087;48.982;12.064;2023-03-11T01:21:51;2.40;1.00
12053;DHT22;6087;48.982;12.064;2023-03-11T01:24:18;2.40;1.00
12053;DHT22;6087;48.982;12.064;2023-03-11T01:26:45;2.40;1.00
12053;DHT22;6087;48.982;12.064;2023-03-11T01:29:11;2.50;1.00
12053;DHT22;6087;48.982;12.064;2023-03-11T01:31:38;2.40;1.00
12053;DHT22;6087;48.982;12.064;2023-03-11T01:34:05;2.40;1.00
12053;DHT22;6087;48.982;12.064;2023-03-11T01:36:32;2.30;1.00
12053;DHT22;6087;48.982;12.064;2023-03-11T01:39:01;2.30;1.00
12053;DHT22;6087;48.982;12.064;2023-03-11T01:41:27;2.30;1.00
12053;DHT22;6087;48.982;12.064;2023-03-11T01:43:55;2.20;1.00
12053;DHT22;6087;48.982;12.064;2023-03-11T01:46:24;2.20;1.00
12053;DHT22;6087;48.982;12.064;2023-03-11T01:48:52;2.20;1.00
12053;DHT22;6087;48.982;12.064;2023-03-11T01:51:24;2.20;1.00
12053;DHT22;6087;48.982;12.064;2023-03-11T01:53:55;2.20;1.00
12053;DHT22;6087;48.982;12.064;2023-03-11T01:56:24;2.10;1.00
12053;DHT22;6087;48.982;12.064;2023-03-11T01:58:52;2.10;1.00
12053;DHT22;6087;48.982;12.064;2023-03-11T02:01:20;2.10;1.00
12053;DHT22;6087;48.982;12.064;2023-03-11T02:03:48;2.10;1.00
12053;DHT22;6087;48.982;12.064;2023-03-11T02:06:17;2.10;1.00
12053;DHT22;6087;48.982;12.064;2023-03-11T02:08:45;2.20;1.00
12053;DHT22;6087;48.982;12.064;2023-03-11T02:11:15;2.10;1.00
12053;DHT22;6087;48.982;12.064;2023-03-11T02:13:45;2.10;1.00
12053;DHT22;6087;48.982;12.064;2023-03-11T02:16:12;2.10;1.00
12053;DHT22;6087;48.982;12.064;2023-03-11T02:18:40;2.10;1.00
12053;DHT22;6087;48.982;12.064;2023-03-11T02:21:16;2.10;1.00
12053;DHT22;6087;48.982;12.064;2023-03-11T02:23:49;2.00;1.00
12053;DHT22;6087;48.982;12.064;2023-03-11T02:26:22;2.00;1.00
12053;DHT22;6087;48.982;12.064;2023-03-11T02:28:52;2.10;1.00
12053;DHT22;6087;48.982;12.064;2023-03-11T02:31:20;2.10;1.00
12053;DHT22;6087;48.982;12.064;2023-03-11T02:33:48;2.00;1.00
12053;DHT22;6087;48.982;12.064;2023-03-11T02:36:30;2.10;1.00
12053;DHT22;6087;48.982;12.064;2023-03-11T02:38:57;2.00;1.00
12053;DHT22;6087;48.982;12.064;2023-03-11T02:41:24;2.00;1.00
12053;DHT22;6087;48.982;12.064;2023-03-11T02:43:53;2.00;1.00
12053;DHT22;6087;48.982;12.064;2023-03-11T02:46:21;2.00;1.00
12053;DHT22;6087;48.982;12.064;2023-03-11T02:48:48;2.10;1.00
12053;DHT22;6087;48.982;12.064;2023-03-11T02:51:15;2.00;1.00
12053;DHT22;6087;48.982;12.064;2023-03-11T02:53:46;2.00;1.00
12053;DHT22;6087;48.982;12.064;2023-03-11T02:56:14;2.00;1.00
12053;DHT22;6087;48.982;12.064;2023-03-11T02:58:41;1.90;1.00
12053;DHT22;6087;48.982;12.064;2023-03-11T03:01:10;1.90;1.00
12053;DHT22;6087;48.982;12.064;2023-03-11T03:03:37;1.90;1.00
12053;DHT22;6087;48.982;12.064;2023-03-11T03:06:04;1.80;1.00
12053;DHT22;6087;48.982;12.064;2023-03-11T03:08:31;1.90;1.00
12053;DHT22;6087;48.982;12.064;2023-03-11T03:11:07;1.80;1.00
12053;DHT22;6087;48.982;12.064;2023-03-11T03:13:34;1.80;1.00
12053;DHT22;6087;48.982;12.064;2023-03-11T03:16:00;1.90;1.00
12053;DHT22;6087;48.982;12.064;2023-03-11T03:18:29;1.90;1.00
12053;DHT22;6087;48.982;12.064;2023-03-11T03:20:56;1.90;1.00
12053;DHT22;6087;48.982;12.064;2023-03-11T03:23:23;1.80;1.00
12053;DHT22;6087;48.982;12.064;2023-03-11T03:25:50;1.80;1.00
12053;DHT22;6087;48.982;12.064;2023-03-11T03:28:20;1.70;1.00
12053;DHT22;6087;48.982;12.064;2023-03-11T03:31:02;1.70;1.00
12053;DHT22;6087;48.982;12.064;2023-03-11T03:33:31;1.60;1.00
12053;DHT22;6087;48.982;12.064;2023-03-11T03:35:58;1.60;1.00
12053;DHT22;6087;48.982;12.064;2023-03-11T03:38:34;1.50;1.00
12053;DHT22;6087;48.982;12.064;2023-03-11T03:41:01;1.50;1.00
12053;DHT22;6087;48.982;12.064;2023-03-11T03:43:28;1.40;1.00
12053;DHT22;6087;48.982;12.064;2023-03-11T03:45:56;1.40;1.00
12053;DHT22;6087;48.982;12.064;2023-03-11T03:48:23;1.40;1.00
12053;DHT22;6087;48.982;12.064;2023-03-11T03:50:52;1.30;1.00
12053;DHT22;6087;48.982;12.064;2023-03-11T03:53:19;1.40;1.00
12053;DHT22;6087;48.982;12.064;2023-03-11T03:55:49;1.40;1.00
12053;DHT22;6087;48.982;12.064;2023-03-11T03:58:16;1.40;1.00
12053;DHT22;6087;48.982;12.064;2023-03-11T04:00:43;1.40;1.00
12053;DHT22;6087;48.982;12.064;2023-03-11T04:03:10;1.40;1.00
12053;DHT22;6087;48.982;12.064;2023-03-11T04:05:37;1.40;1.00
12053;DHT22;6087;48.982;12.064;2023-03-11T04:08:06;1.40;1.00
12053;DHT22;6087;48.982;12.064;2023-03-11T04:10:33;1.50;1.00
12053;DHT22;6087;48.982;12.064;2023-03-11T04:12:59;1.50;1.00
12053;DHT22;6087;48.982;12.064;2023-03-11T04:15:26;1.30;1.00
12053;DHT22;6087;48.982;12.064;2023-03-11T04:17:53;1.30;1.00
12053;DHT22;6087;48.982;12.064;2023-03-11T04:20:20;1.30;1.00
12053;DHT22;6087;48.982;12.064;2023-03-11T04:22:47;1.30;1.00
12053;DHT22;6087;48.982;12.064;2023-03-11T04:25:16;1.30;1.00
12053;DHT22;6087;48.982;12.064;2023-03-11T04:27:43;1.30;1.00
12053;DHT22;6087;48.982;12.064;2023-03-11T04:30:11;1.40;1.00
12053;DHT22;6087;48.982;12.064;2023-03-11T04:32:41;1.40;1.00
12053;DHT22;6087;48.982;12.064;2023-03-11T04:35:08;1.30;1.00
12053;DHT22;6087;48.982;12.064;2023-03-11T04:37:35;1.30;1.00
12053;DHT22;6087;48.982;12.064;2023-03-11T04:40:02;1.20;1.00
12053;DHT22;6087;48.982;12.064;2023-03-11T04:42:31;1.20;1.00
12053;DHT22;6087;48.982;12.064;2023-03-11T04:44:58;1.20;1.00
12053;DHT22;6087;48.982;12.064;2023-03-11T04:47:32;1.30;1.00
12053;DHT22;6087;48.982;12.064;2023-03-11T04:50:02;1.30;1.00
12053;DHT22;6087;48.982;12.064;2023-03-11T04:52:29;1.20;1.00
12053;DHT22;6087;48.982;12.064;2023-03-11T04:54:56;1.20;1.00
12053;DHT22;6087;48.982;12.064;2023-03-11T04:57:23;1.10;1.00
12053;DHT22;6087;48.982;12.064;2023-03-11T04:59:51;1.20;1.00
12053;DHT22;6087;48.982;12.064;2023-03-11T05:02:19;1.10;1.00
12053;DHT22;6087;48.982;12.064;2023-03-11T05:04:46;1.10;1.00
12053;DHT22;6087;48.982;12.064;2023-03-11T05:07:13;1.10;1.00
12053;DHT22;6087;48.982;12.064;2023-03-11T05:09:40;1.10;1.00
12053;DHT22;6087;48.982;12.064;2023-03-11T05:12:10;1.00;1.00
12053;DHT22;6087;48.982;12.064;2023-03-11T05:14:37;1.00;1.00
12053;DHT22;6087;48.982;12.064;2023-03-11T05:17:06;1.00;1.00
12053;DHT22;6087;48.982;12.064;2023-03-11T05:19:34;0.90;8.40
12053;DHT22;6087;48.982;12.064;2023-03-11T05:22:02;0.90;24.40
12053;DHT22;6087;48.982;12.064;2023-03-11T05:24:30;0.80;24.90
12053;DHT22;6087;48.982;12.064;2023-03-11T05:26:58;0.90;54.50
12053;DHT22;6087;48.982;12.064;2023-03-11T05:29:26;0.90;27.00
12053;DHT22;6087;48.982;12.064;2023-03-11T05:31:53;0.80;22.10
12053;DHT22;6087;48.982;12.064;2023-03-11T05:34:21;0.80;47.00
12053;DHT22;6087;48.982;12.064;2023-03-11T05:36:48;0.90;37.30
12053;DHT22;6087;48.982;12.064;2023-03-11T05:39:15;0.90;59.00
12053;DHT22;6087;48.982;12.064;2023-03-11T05:41:42;0.90;84.80
12053;DHT22;6087;48.982;12.064;2023-03-11T05:44:09;0.80;99.90
12053;DHT22;6087;48.982;12.064;2023-03-11T05:46:36;0.80;99.90
12053;DHT22;6087;48.982;12.064;2023-03-11T05:49:03;0.80;99.90
12053;DHT22;6087;48.982;12.064;2023-03-11T05:51:31;0.80;99.20
12053;DHT22;6087;48.982;12.064;2023-03-11T05:53:59;0.80;99.90
12053;DHT22;6087;48.982;12.064;2023-03-11T05:56:25;0.80;99.90
12053;DHT22;6087;48.982;12.064;2023-03-11T05:58:52;0.80;99.90
12053;DHT22;6087;48.982;12.064;2023-03-11T06:01:19;0.90;99.90
12053;DHT22;6087;48.982;12.064;2023-03-11T06:03:46;0.80;99.90
12053;DHT22;6087;48.982;12.064;2023-03-11T06:06:13;0.90;99.90
12053;DHT22;6087;48.982;12.064;2023-03-11T06:08:43;1.00;99.90
12053;DHT22;6087;48.982;12.064;2023-03-11T06:11:14;1.00;99.90
12053;DHT22;6087;48.982;12.064;2023-03-11T06:13:41;1.10;99.90
12053;DHT22;6087;48.982;12.064;2023-03-11T06:16:08;1.10;99.90
12053;DHT22;6087;48.982;12.064;2023-03-11T06:18:38;0.90;99.90
12053;DHT22;6087;48.982;12.064;2023-03-11T06:21:05;1.00;99.90
12053;DHT22;6087;48.982;12.064;2023-03-11T06:23:33;1.00;99.90
12053;DHT22;6087;48.982;12.064;2023-03-11T06:26:03;1.10;99.90
12053;DHT22;6087;48.982;12.064;2023-03-11T06:28:31;1.10;99.90
12053;DHT22;6087;48.982;12.064;2023-03-11T06:31:06;1.10;99.90
12053;DHT22;6087;48.982;12.064;2023-03-11T06:33:33;1.10;99.90
12053;DHT22;6087;48.982;12.064;2023-03-11T06:36:04;1.00;99.90
12053;DHT22;6087;48.982;12.064;2023-03-11T06:38:32;1.00;99.90
12053;DHT22;6087;48.982;12.064;2023-03-11T06:41:03;1.00;99.90
12053;DHT22;6087;48.982;12.064;2023-03-11T06:43:30;0.90;99.90
12053;DHT22;6087;48.982;12.064;2023-03-11T06:45:58;0.90;99.90
12053;DHT22;6087;48.982;12.064;2023-03-11T06:48:25;1.00;99.90
12053;DHT22;6087;48.982;12.064;2023-03-11T06:50:53;0.90;99.90
12053;DHT22;6087;48.982;12.064;2023-03-11T06:53:20;0.80;99.90
12053;DHT22;6087;48.982;12.064;2023-03-11T06:55:57;1.00;99.90
12053;DHT22;6087;48.982;12.064;2023-03-11T06:58:26;1.00;99.90
12053;DHT22;6087;48.982;12.064;2023-03-11T07:00:53;1.00;99.90
12053;DHT22;6087;48.982;12.064;2023-03-11T07:03:20;1.00;99.90
12053;DHT22;6087;48.982;12.064;2023-03-11T07:05:50;1.10;99.90
12053;DHT22;6087;48.982;12.064;2023-03-11T07:08:17;1.10;99.90
12053;DHT22;6087;48.982;12.064;2023-03-11T07:10:44;1.20;99.90
12053;DHT22;6087;48.982;12.064;2023-03-11T07:13:13;1.20;99.90
12053;DHT22;6087;48.982;12.064;2023-03-11T07:15:41;1.20;99.90
12053;DHT22;6087;48.982;12.064;2023-03-11T07:18:08;1.20;99.90
12053;DHT22;6087;48.982;12.064;2023-03-11T07:20:35;1.20;99.90
12053;DHT22;6087;48.982;12.064;2023-03-11T07:23:10;1.10;99.90
12053;DHT22;6087;48.982;12.064;2023-03-11T07:25:37;1.10;99.90
12053;DHT22;6087;48.982;12.064;2023-03-11T07:28:04;1.10;99.90
12053;DHT22;6087;48.982;12.064;2023-03-11T07:30:31;1.20;99.90
12053;DHT22;6087;48.982;12.064;2023-03-11T07:33:00;1.10;99.90
12053;DHT22;6087;48.982;12.064;2023-03-11T07:35:27;1.10;99.90
12053;DHT22;6087;48.982;12.064;2023-03-11T07:37:54;1.10;99.90
12053;DHT22;6087;48.982;12.064;2023-03-11T07:40:21;1.10;99.90
12053;DHT22;6087;48.982;12.064;2023-03-11T07:42:48;1.20;99.90
12053;DHT22;6087;48.982;12.064;2023-03-11T07:45:15;1.20;99.90
12053;DHT22;6087;48.982;12.064;2023-03-11T07:47:42;1.20;99.90
12053;DHT22;6087;48.982;12.064;2023-03-11T07:50:14;1.30;99.90
12053;DHT22;6087;48.982;12.064;2023-03-11T07:52:41;1.30;99.70
12053;DHT22;6087;48.982;12.064;2023-03-11T07:55:09;1.30;99.90
12053;DHT22;6087;48.982;12.064;2023-03-11T07:57:36;1.50;99.90
12053;DHT22;6087;48.982;12.064;2023-03-11T08:00:03;1.50;96.00
12053;DHT22;6087;48.982;12.064;2023-03-11T08:02:30;1.50;74.80
12053;DHT22;6087;48.982;12.064;2023-03-11T08:04:57;1.50;62.50
12053;DHT22;6087;48.982;12.064;2023-03-11T08:07:25;1.50;69.50
12053;DHT22;6087;48.982;12.064;2023-03-11T08:09:52;1.50;50.90
12053;DHT22;6087;48.982;12.064;2023-03-11T08:12:19;1.70;75.40
12053;DHT22;6087;48.982;12.064;2023-03-11T08:14:46;1.80;42.00
12053;DHT22;6087;48.982;12.064;2023-03-11T08:17:13;1.90;1.00
12053;DHT22;6087;48.982;12.064;2023-03-11T08:19:40;2.00;2.80
12053;DHT22;6087;48.982;12.064;2023-03-11T08:22:07;2.00;8.20
12053;DHT22;6087;48.982;12.064;2023-03-11T08:24:35;2.10;1.00
12053;DHT22;6087;48.982;12.064;2023-03-11T08:27:03;2.10;1.00
12053;DHT22;6087;48.982;12.064;2023-03-11T08:29:30;2.10;1.00
12053;DHT22;6087;48.982;12.064;2023-03-11T08:31:57;2.20;1.00
12053;DHT22;6087;48.982;12.064;2023-03-11T08:34:24;2.20;1.00
12053;DHT22;6087;48.982;12.064;2023-03-11T08:36:52;2.20;1.00
12053;DHT22;6087;48.982;12.064;2023-03-11T08:39:19;2.20;1.00
12053;DHT22;6087;48.982;12.064;2023-03-11T08:41:47;2.20;1.00
12053;DHT22;6087;48.982;12.064;2023-03-11T08:44:14;2.30;1.00
12053;DHT22;6087;48.982;12.064;2023-03-11T08:46:41;2.30;1.00
12053;DHT22;6087;48.982;12.064;2023-03-11T08:49:08;2.30;1.00
12053;DHT22;6087;48.982;12.064;2023-03-11T08:51:35;2.20;1.00
12053;DHT22;6087;48.982;12.064;2023-03-11T08:54:03;2.20;1.00
12053;DHT22;6087;48.982;12.064;2023-03-11T08:56:30;2.30;1.00
12053;DHT22;6087;48.982;12.064;2023-03-11T08:58:58;2.50;1.00
12053;DHT22;6087;48.982;12.064;2023-03-11T09:01:25;2.40;1.00
12053;DHT22;6087;48.982;12.064;2023-03-11T09:03:54;2.40;1.00
12053;DHT22;6087;48.982;12.064;2023-03-11T09:06:21;2.40;1.00
12053;DHT22;6087;48.982;12.064;2023-03-11T09:08:49;2.40;1.00
12053;DHT22;6087;48.982;12.064;2023-03-11T09:11:16;2.40;1.00
12053;DHT22;6087;48.982;12.064;2023-03-11T09:13:43;2.30;1.00
12053;DHT22;6087;48.982;12.064;2023-03-11T09:16:13;2.40;1.00
12053;DHT22;6087;48.982;12.064;2023-03-11T09:18:41;2.50;1.00
12053;DHT22;6087;48.982;12.064;2023-03-11T09:21:08;2.80;1.00
12053;DHT22;6087;48.982;12.064;2023-03-11T09:23:41;2.90;1.00
12053;DHT22;6087;48.982;12.064;2023-03-11T09:26:08;2.90;1.00
12053;DHT22;6087;48.982;12.064;2023-03-11T09:28:35;2.90;1.00
12053;DHT22;6087;48.982;12.064;2023-03-11T09:31:11;3.00;1.00
12053;DHT22;6087;48.982;12.064;2023-03-11T09:33:41;3.20;1.00
12053;DHT22;6087;48.982;12.064;2023-03-11T09:36:12;3.30;1.00
12053;DHT22;6087;48.982;12.064;2023-03-11T09:38:39;3.50;1.00
12053;DHT22;6087;48.982;12.064;2023-03-11T09:41:12;3.60;1.00
12053;DHT22;6087;48.982;12.064;2023-03-11T09:43:53;3.70;1.00
12053;DHT22;6087;48.982;12.064;2023-03-11T09:46:34;3.80;1.00
12053;DHT22;6087;48.982;12.064;2023-03-11T09:49:13;3.70;1.00
12053;DHT22;6087;48.982;12.064;2023-03-11T09:51:46;3.90;1.00
12053;DHT22;6087;48.982;12.064;2023-03-11T09:54:17;3.90;1.00
12053;DHT22;6087;48.982;12.064;2023-03-11T09:56:44;4.00;1.00
12053;DHT22;6087;48.982;12.064;2023-03-11T09:59:15;4.10;1.00
12053;DHT22;6087;48.982;12.064;2023-03-11T10:01:46;4.10;1.00
12053;DHT22;6087;48.982;12.064;2023-03-11T10:04:19;4.00;1.00
12053;DHT22;6087;48.982;12.064;2023-03-11T10:06:48;4.10;1.00
12053;DHT22;6087;48.982;12.064;2023-03-11T10:09:35;4.10;1.00
12053;DHT22;6087;48.982;12.064;2023-03-11T10:12:15;4.20;1.00
12053;DHT22;6087;48.982;12.064;2023-03-11T10:14:53;4.10;1.00
12053;DHT22;6087;48.982;12.064;2023-03-11T10:17:48;4.20;1.00
12053;DHT22;6087;48.982;12.064;2023-03-11T10:20:22;4.20;1.00
12053;DHT22;6087;48.982;12.064;2023-03-11T10:22:59;4.10;1.00
12053;DHT22;6087;48.982;12.064;2023-03-11T10:25:32;4.10;1.00
12053;DHT22;6087;48.982;12.064;2023-03-11T10:28:07;4.10;1.00
12053;DHT22;6087;48.982;12.064;2023-03-11T10:30:39;4.10;1.00
12053;DHT22;6087;48.982;12.064;2023-03-11T10:33:16;4.10;1.00
12053;DHT22;6087;48.982;12.064;2023-03-11T10:35:50;4.10;1.00
12053;DHT22;6087;48.982;12.064;2023-03-11T10:38:19;3.90;1.00
12053;DHT22;6087;48.982;12.064;2023-03-11T10:40:49;3.80;1.00
12053;DHT22;6087;48.982;12.064;2023-03-11T10:43:18;3.60;1.00
12053;DHT22;6087;48.982;12.064;2023-03-11T10:45:47;3.60;1.00
12053;DHT22;6087;48.982;12.064;2023-03-11T10:48:16;3.50;1.00
12053;DHT22;6087;48.982;12.064;2023-03-11T10:50:50;3.50;1.00
12053;DHT22;6087;48.982;12.064;2023-03-11T10:53:19;3.50;1.00
12053;DHT22;6087;48.982;12.064;2023-03-11T10:55:48;3.50;1.00
12053;DHT22;6087;48.982;12.064;2023-03-11T10:58:18;3.50;1.00
12053;DHT22;6087;48.982;12.064;2023-03-11T11:00:45;3.50;1.00
12053;DHT22;6087;48.982;12.064;2023-03-11T11:03:20;3.50;1.00
12053;DHT22;6087;48.982;12.064;2023-03-11T11:05:59;3.40;1.00
12053;DHT22;6087;48.982;12.064;2023-03-11T11:08:27;3.40;1.00
12053;DHT22;6087;48.982;12.064;2023-03-11T11:10:55;3.20;1.00
12053;DHT22;6087;48.982;12.064;2023-03-11T11:13:24;3.10;1.00
12053;DHT22;6087;48.982;12.064;2023-03-11T11:15:56;3.10;1.00
12053;DHT22;6087;48.982;12.064;2023-03-11T11:18:25;3.10;1.00
12053;DHT22;6087;48.982;12.064;2023-03-11T11:21:00;3.20;1.00
12053;DHT22;6087;48.982;12.064;2023-03-11T11:23:33;3.20;1.00
12053;DHT22;6087;48.982;12.064;2023-03-11T11:26:03;3.40;1.00
12053;DHT22;6087;48.982;12.064;2023-03-11T11:28:31;3.50;1.00
12053;DHT22;6087;48.982;12.064;2023-03-11T11:31:00;3.60;1.00
12053;DHT22;6087;48.982;12.064;2023-03-11T11:33:29;3.60;1.00
12053;DHT22;6087;48.982;12.064;2023-03-11T11:36:01;3.60;1.00
12053;DHT22;6087;48.982;12.064;2023-03-11T11:38:29;3.40;1.00
12053;DHT22;6087;48.982;12.064;2023-03-11T11:41:00;3.50;1.00
12053;DHT22;6087;48.982;12.064;2023-03-11T11:43:43;3.40;1.00
12053;DHT22;6087;48.982;12.064;2023-03-11T11:46:19;3.60;1.00
12053;DHT22;6087;48.982;12.064;2023-03-11T11:48:53;4.00;1.00
12053;DHT22;6087;48.982;12.064;2023-03-11T11:51:29;4.30;1.00
12053;DHT22;6087;48.982;12.064;2023-03-11T11:54:01;4.30;1.00
12053;DHT22;6087;48.982;12.064;2023-03-11T11:56:29;3.90;1.00
12053;DHT22;6087;48.982;12.064;2023-03-11T11:58:56;3.90;1.00
12053;DHT22;6087;48.982;12.064;2023-03-11T12:01:34;4.20;1.00
12053;DHT22;6087;48.982;12.064;2023-03-11T12:04:29;4.60;1.00
12053;DHT22;6087;48.982;12.064;2023-03-11T12:07:10;4.90;1.00
12053;DHT22;6087;48.982;12.064;2023-03-11T12:09:48;5.00;1.00
12053;DHT22;6087;48.982;12.064;2023-03-11T12:12:22;4.80;1.00
12053;DHT22;6087;48.982;12.064;2023-03-11T12:14:56;4.60;1.00
12053;DHT22;6087;48.982;12.064;2023-03-11T12:17:26;4.50;1.00
12053;DHT22;6087;48.982;12.064;2023-03-11T12:19:57;4.20;1.00
12053;DHT22;6087;48.982;12.064;2023-03-11T12:22:43;4.10;1.00
12053;DHT22;6087;48.982;12.064;2023-03-11T12:25:32;4.30;1.00
12053;DHT22;6087;48.982;12.064;2023-03-11T12:28:08;4.40;1.00
12053;DHT22;6087;48.982;12.064;2023-03-11T12:30:42;4.50;1.00
12053;DHT22;6087;48.982;12.064;2023-03-11T12:33:13;4.50;1.00
12053;DHT22;6087;48.982;12.064;2023-03-11T12:35:48;4.50;1.00
12053;DHT22;6087;48.982;12.064;2023-03-11T12:38:22;4.80;1.00
12053;DHT22;6087;48.982;12.064;2023-03-11T12:40:59;4.90;1.00
12053;DHT22;6087;48.982;12.064;2023-03-11T12:46:59;5.10;1.00
12053;DHT22;6087;48.982;12.064;2023-03-11T12:49:27;5.00;1.00
12053;DHT22;6087;48.982;12.064;2023-03-11T12:52:16;4.90;1.00
12053;DHT22;6087;48.982;12.064;2023-03-11T12:54:46;4.90;1.00
12053;DHT22;6087;48.982;12.064;2023-03-11T12:57:30;4.80;1.00
12053;DHT22;6087;48.982;12.064;2023-03-11T13:00:22;4.70;1.00
12053;DHT22;6087;48.982;12.064;2023-03-11T13:03:38;4.50;1.00
12053;DHT22;6087;48.982;12.064;2023-03-11T13:06:19;4.30;1.00
12053;DHT22;6087;48.982;12.064;2023-03-11T13:08:49;4.30;1.00
12053;DHT22;6087;48.982;12.064;2023-03-11T13:11:38;4.30;1.00
12053;DHT22;6087;48.982;12.064;2023-03-11T13:14:28;4.40;1.00
12053;DHT22;6087;48.982;12.064;2023-03-11T13:17:17;4.30;1.00
12053;DHT22;6087;48.982;12.064;2023-03-11T13:19:51;4.30;1.00
12053;DHT22;6087;48.982;12.064;2023-03-11T13:22:43;4.10;1.00
12053;DHT22;6087;48.982;12.064;2023-03-11T13:25:32;4.10;1.00
12053;DHT22;6087;48.982;12.064;2023-03-11T13:28:23;4.10;1.00
12053;DHT22;6087;48.982;12.064;2023-03-11T13:30:57;4.10;1.00
12053;DHT22;6087;48.982;12.064;2023-03-11T13:33:41;4.10;1.00
12053;DHT22;6087;48.982;12.064;2023-03-11T13:36:20;4.00;1.00
12053;DHT22;6087;48.982;12.064;2023-03-11T13:39:19;4.10;1.00
12053;DHT22;6087;48.982;12.064;2023-03-11T13:41:48;3.90;1.00
12053;DHT22;6087;48.982;12.064;2023-03-11T13:44:24;3.90;1.00
12053;DHT22;6087;48.982;12.064;2023-03-11T13:46:55;3.80;1.00
12053;DHT22;6087;48.982;12.064;2023-03-11T13:49:27;3.80;1.00
12053;DHT22;6087;48.982;12.064;2023-03-11T13:51:57;3.80;1.00
12053;DHT22;6087;48.982;12.064;2023-03-11T13:54:38;3.80;1.00
12053;DHT22;6087;48.982;12.064;2023-03-11T13:57:27;3.80;1.00
12053;DHT22;6087;48.982;12.064;2023-03-11T13:59:56;3.60;1.00
12053;DHT22;6087;48.982;12.064;2023-03-11T14:02:25;3.30;1.00
12053;DHT22;6087;48.982;12.064;2023-03-11T14:04:55;3.30;1.00
12053;DHT22;6087;48.982;12.064;2023-03-11T14:07:28;3.30;1.00
12053;DHT22;6087;48.982;12.064;2023-03-11T14:10:21;3.40;1.00
12053;DHT22;6087;48.982;12.064;2023-03-11T14:12:49;3.50;1.00
12053;DHT22;6087;48.982;12.064;2023-03-11T14:15:20;3.40;1.00
12053;DHT22;6087;48.982;12.064;2023-03-11T14:17:49;3.20;1.00
12053;DHT22;6087;48.982;12.064;2023-03-11T14:20:20;3.30;1.00
12053;DHT22;6087;48.982;12.064;2023-03-11T14:22:50;3.30;1.00
12053;DHT22;6087;48.982;12.064;2023-03-11T14:25:23;3.20;1.00
12053;DHT22;6087;48.982;12.064;2023-03-11T14:27:59;3.20;1.00
12053;DHT22;6087;48.982;12.064;2023-03-11T14:30:29;3.10;1.00
12053;DHT22;6087;48.982;12.064;2023-03-11T14:32:59;3.20;1.00
12053;DHT22;6087;48.982;12.064;2023-03-11T14:35:27;3.30;1.00
12053;DHT22;6087;48.982;12.064;2023-03-11T14:37:55;3.40;1.00
12053;DHT22;6087;48.982;12.064;2023-03-11T14:40:29;3.40;1.00
12053;DHT22;6087;48.982;12.064;2023-03-11T14:43:00;3.50;1.00
12053;DHT22;6087;48.982;12.064;2023-03-11T14:45:31;3.50;1.00
12053;DHT22;6087;48.982;12.064;2023-03-11T14:48:03;3.50;1.00
12053;DHT22;6087;48.982;12.064;2023-03-11T14:50:34;3.50;1.00
12053;DHT22;6087;48.982;12.064;2023-03-11T14:53:05;3.40;1.00
12053;DHT22;6087;48.982;12.064;2023-03-11T14:55:37;3.30;1.00
12053;DHT22;6087;48.982;12.064;2023-03-11T14:58:13;3.30;1.00
12053;DHT22;6087;48.982;12.064;2023-03-11T15:00:47;3.20;1.00
12053;DHT22;6087;48.982;12.064;2023-03-11T15:03:22;3.20;1.00
12053;DHT22;6087;48.982;12.064;2023-03-11T15:05:51;3.30;1.00
12053;DHT22;6087;48.982;12.064;2023-03-11T15:08:25;3.30;1.00
12053;DHT22;6087;48.982;12.064;2023-03-11T15:11:06;3.40;1.00
12053;DHT22;6087;48.982;12.064;2023-03-11T15:13:35;3.40;1.00
12053;DHT22;6087;48.982;12.064;2023-03-11T15:16:07;3.30;1.00
12053;DHT22;6087;48.982;12.064;2023-03-11T15:18:47;3.40;1.00
12053;DHT22;6087;48.982;12.064;2023-03-11T15:21:19;3.50;1.00
12053;DHT22;6087;48.982;12.064;2023-03-11T15:23:49;3.50;1.00
12053;DHT22;6087;48.982;12.064;2023-03-11T15:26:20;3.50;1.00
12053;DHT22;6087;48.982;12.064;2023-03-11T15:28:54;3.50;1.00
12053;DHT22;6087;48.982;12.064;2023-03-11T15:31:33;3.40;1.00
12053;DHT22;6087;48.982;12.064;2023-03-11T15:34:09;3.40;1.00
12053;DHT22;6087;48.982;12.064;2023-03-11T15:36:52;3.50;1.00
12053;DHT22;6087;48.982;12.064;2023-03-11T15:39:26;3.50;1.00
12053;DHT22;6087;48.982;12.064;2023-03-11T15:42:00;3.50;1.00
12053;DHT22;6087;48.982;12.064;2023-03-11T15:44:31;3.50;1.00
12053;DHT22;6087;48.982;12.064;2023-03-11T15:47:00;3.50;1.00
12053;DHT22;6087;48.982;12.064;2023-03-11T15:49:28;3.50;1.00
12053;DHT22;6087;48.982;12.064;2023-03-11T15:52:00;3.50;1.00
12053;DHT22;6087;48.982;12.064;2023-03-11T15:54:28;3.50;1.00
12053;DHT22;6087;48.982;12.064;2023-03-11T15:56:57;3.50;1.00
12053;DHT22;6087;48.982;12.064;2023-03-11T15:59:29;3.40;1.00
12053;DHT22;6087;48.982;12.064;2023-03-11T16:02:20;3.40;1.00
12053;DHT22;6087;48.982;12.064;2023-03-11T16:04:48;3.40;1.00
12053;DHT22;6087;48.982;12.064;2023-03-11T16:07:15;3.40;1.00
12053;DHT22;6087;48.982;12.064;2023-03-11T16:09:42;3.40;1.00
12053;DHT22;6087;48.982;12.064;2023-03-11T16:12:15;3.40;1.00
12053;DHT22;6087;48.982;12.064;2023-03-11T16:14:45;3.30;1.00
12053;DHT22;6087;48.982;12.064;2023-03-11T16:17:17;3.40;1.00
12053;DHT22;6087;48.982;12.064;2023-03-11T16:19:45;3.50;1.00
12053;DHT22;6087;48.982;12.064;2023-03-11T16:22:16;3.60;1.00
12053;DHT22;6087;48.982;12.064;2023-03-11T16:24:45;3.70;1.00